createdAt,value
2023-03-03T00:00:16.843Z,17.80
2023-03-03T00:01:20.434Z,17.80
2023-03-03T00:02:22.830Z,17.80
2023-03-03T00:03:26.970Z,17.80
2023-03-03T00:04:29.326Z,17.80
2023-03-03T00:05:34.923Z,17.80
2023-03-03T00:06:37.340Z,17.80
2023-03-03T00:07:39.727Z,17.90
2023-03-03T00:08:42.378Z,17.90
2023-03-03T00:09:44.797Z,17.80
2023-03-03T00:10:47.187Z,17.80
2023-03-03T00:11:54.270Z,17.80
2023-03-03T00:12:56.736Z,17.40
2023-03-03T00:13:59.191Z,16.50
2023-03-03T00:15:01.579Z,15.80
2023-03-03T00:16:26.586Z,15.70
2023-03-03T00:17:31.857Z,16.10
2023-03-03T00:18:37.365Z,16.40
2023-03-03T00:19:41.181Z,16.60
2023-03-03T00:20:56.094Z,16.80
2023-03-03T00:21:58.939Z,16.90
2023-03-03T00:23:20.495Z,17.00
2023-03-03T00:24:37.775Z,17.10
2023-03-03T00:25:43.496Z,17.10
2023-03-03T00:26:48.429Z,17.20
2023-03-03T00:27:50.898Z,17.20
2023-03-03T00:28:54.617Z,17.20
2023-03-03T00:30:00.208Z,17.30
2023-03-03T00:31:13.205Z,17.30
2023-03-03T00:32:15.598Z,17.30
2023-03-03T00:33:32.355Z,17.30
2023-03-03T00:34:36.355Z,17.40
2023-03-03T00:35:39.558Z,17.40
2023-03-03T00:36:42.223Z,17.40
2023-03-03T00:37:44.552Z,17.40
2023-03-03T00:38:49.137Z,17.40
2023-03-03T00:39:51.466Z,17.40
2023-03-03T00:40:53.888Z,17.40
2023-03-03T00:41:57.673Z,17.40
2023-03-03T00:43:00.904Z,17.40
2023-03-03T00:44:36.892Z,17.40
2023-03-03T00:45:55.189Z,17.40
2023-03-03T00:47:02.511Z,17.40
2023-03-03T00:48:27.342Z,17.30
2023-03-03T00:49:29.734Z,17.40
2023-03-03T00:50:34.956Z,17.30
2023-03-03T00:51:37.256Z,17.40
2023-03-03T00:52:44.639Z,17.40
2023-03-03T00:53:46.983Z,17.40
2023-03-03T00:54:49.509Z,17.40
2023-03-03T00:55:53.280Z,17.40
2023-03-03T00:56:55.846Z,17.40
2023-03-03T00:57:58.627Z,17.40
2023-03-03T00:59:07.519Z,17.30
2023-03-03T01:00:11.018Z,17.40
2023-03-03T01:01:15.474Z,17.40
2023-03-03T01:02:21.817Z,17.40
2023-03-03T01:03:26.604Z,17.30
2023-03-03T01:04:29.495Z,17.30
2023-03-03T01:05:32.449Z,17.30
2023-03-03T01:06:35.155Z,17.30
2023-03-03T01:07:37.652Z,17.30
2023-03-03T01:08:40.108Z,17.30
2023-03-03T01:09:42.440Z,17.30
2023-03-03T01:10:53.508Z,17.30
2023-03-03T01:11:56.784Z,17.30
2023-03-03T01:12:59.304Z,17.30
2023-03-03T01:14:01.689Z,17.30
2023-03-03T01:15:08.386Z,17.30
2023-03-03T01:16:10.916Z,17.30
2023-03-03T01:17:13.540Z,17.30
2023-03-03T01:18:16.324Z,17.30
2023-03-03T01:19:18.712Z,17.30
2023-03-03T01:20:21.873Z,17.30
2023-03-03T01:21:24.205Z,17.30
2023-03-03T01:22:26.559Z,17.30
2023-03-03T01:23:29.112Z,17.30
2023-03-03T01:24:31.692Z,17.30
2023-03-03T01:25:34.382Z,17.30
2023-03-03T01:26:36.659Z,17.30
2023-03-03T01:27:39.320Z,17.30
2023-03-03T01:28:41.703Z,17.30
2023-03-03T01:29:44.247Z,17.20
2023-03-03T01:30:46.617Z,17.30
2023-03-03T01:31:48.981Z,17.30
2023-03-03T01:32:51.652Z,17.30
2023-03-03T01:33:53.919Z,17.30
2023-03-03T01:34:56.388Z,17.20
2023-03-03T01:35:59.408Z,17.30
2023-03-03T01:37:01.763Z,17.20
2023-03-03T01:38:04.116Z,17.20
2023-03-03T01:39:06.466Z,17.20
2023-03-03T01:40:18.481Z,17.20
2023-03-03T01:41:21.075Z,17.20
2023-03-03T01:42:23.464Z,17.20
2023-03-03T01:43:32.678Z,17.20
2023-03-03T01:44:35.060Z,17.20
2023-03-03T01:45:43.235Z,17.20
2023-03-03T01:46:52.458Z,17.20
2023-03-03T01:48:01.417Z,17.20
2023-03-03T01:49:12.679Z,17.20
2023-03-03T01:50:27.156Z,17.20
2023-03-03T01:51:33.807Z,17.20
2023-03-03T01:52:40.088Z,17.20
2023-03-03T01:53:45.651Z,17.20
2023-03-03T01:54:52.352Z,17.20
2023-03-03T01:55:54.994Z,17.10
2023-03-03T01:57:02.776Z,17.10
2023-03-03T01:58:22.874Z,17.10
2023-03-03T01:59:31.717Z,17.10
2023-03-03T02:00:36.584Z,17.10
2023-03-03T02:01:39.685Z,17.10
2023-03-03T02:02:43.714Z,17.10
2023-03-03T02:03:46.209Z,17.10
2023-03-03T02:04:49.984Z,17.10
2023-03-03T02:05:55.682Z,17.10
2023-03-03T02:07:02.047Z,17.10
2023-03-03T02:08:05.019Z,17.10
2023-03-03T02:09:18.664Z,17.10
2023-03-03T02:10:21.795Z,17.10
2023-03-03T02:11:24.377Z,17.00
2023-03-03T02:12:33.788Z,17.00
2023-03-03T02:13:36.147Z,17.00
2023-03-03T02:14:38.568Z,17.10
2023-03-03T02:15:41.723Z,17.00
2023-03-03T02:16:44.782Z,17.00
2023-03-03T02:17:50.432Z,17.00
2023-03-03T02:18:52.860Z,17.00
2023-03-03T02:20:10.629Z,17.00
2023-03-03T02:21:17.755Z,17.00
2023-03-03T02:22:30.928Z,17.00
2023-03-03T02:23:48.465Z,17.00
2023-03-03T02:24:59.950Z,17.10
2023-03-03T02:26:22.717Z,17.00
2023-03-03T02:27:31.290Z,17.00
2023-03-03T02:28:36.656Z,17.00
2023-03-03T02:29:42.059Z,17.00
2023-03-03T02:30:44.420Z,17.00
2023-03-03T02:31:46.859Z,17.00
2023-03-03T02:32:49.862Z,16.90
2023-03-03T02:33:53.589Z,16.90
2023-03-03T02:34:56.099Z,16.90
2023-03-03T02:35:59.226Z,16.90
2023-03-03T02:37:04.011Z,16.90
2023-03-03T02:38:42.163Z,16.90
2023-03-03T02:39:44.808Z,16.90
2023-03-03T02:41:18.907Z,16.90
2023-03-03T02:42:26.490Z,16.90
2023-03-03T02:43:42.783Z,16.90
2023-03-03T02:44:45.962Z,16.90
2023-03-03T02:45:48.291Z,16.80
2023-03-03T02:46:52.519Z,16.80
2023-03-03T02:47:55.352Z,16.80
2023-03-03T02:48:57.664Z,16.80
2023-03-03T02:50:00.335Z,16.80
2023-03-03T02:51:02.730Z,16.70
2023-03-03T02:52:09.606Z,16.80
2023-03-03T02:53:12.525Z,16.80
2023-03-03T02:54:18.220Z,16.70
2023-03-03T02:55:20.571Z,16.70
2023-03-03T02:56:23.547Z,16.70
2023-03-03T02:57:25.945Z,16.70
2023-03-03T02:58:29.399Z,16.70
2023-03-03T02:59:31.819Z,16.70
2023-03-03T03:00:41.067Z,16.70
2023-03-03T03:01:43.667Z,16.70
2023-03-03T03:02:49.470Z,16.70
2023-03-03T03:03:51.994Z,16.70
2023-03-03T03:04:56.354Z,16.70
2023-03-03T03:06:00.079Z,16.70
2023-03-03T03:07:03.406Z,16.70
2023-03-03T03:08:07.746Z,16.70
2023-03-03T03:09:11.395Z,16.60
2023-03-03T03:10:14.070Z,16.70
2023-03-03T03:11:17.398Z,16.60
2023-03-03T03:12:21.144Z,16.60
2023-03-03T03:13:26.362Z,16.60
2023-03-03T03:14:29.354Z,16.60
2023-03-03T03:15:32.240Z,16.60
2023-03-03T03:16:35.057Z,16.60
2023-03-03T03:17:38.886Z,16.60
2023-03-03T03:18:41.958Z,16.60
2023-03-03T03:19:44.268Z,16.60
2023-03-03T03:20:48.452Z,16.60
2023-03-03T03:21:50.942Z,16.60
2023-03-03T03:22:53.866Z,16.60
2023-03-03T03:23:56.268Z,16.60
2023-03-03T03:24:58.607Z,16.60
2023-03-03T03:26:01.309Z,16.60
2023-03-03T03:27:04.579Z,16.60
2023-03-03T03:28:07.461Z,16.60
2023-03-03T03:29:10.978Z,16.60
2023-03-03T03:30:13.604Z,16.50
2023-03-03T03:31:17.774Z,16.50
2023-03-03T03:32:20.503Z,16.50
2023-03-03T03:33:23.194Z,16.50
2023-03-03T03:34:25.921Z,16.50
2023-03-03T03:35:29.917Z,16.50
2023-03-03T03:36:32.308Z,16.50
2023-03-03T03:37:34.917Z,16.50
2023-03-03T03:38:38.347Z,16.50
2023-03-03T03:39:42.540Z,16.50
2023-03-03T03:40:44.989Z,16.50
2023-03-03T03:41:47.443Z,16.50
2023-03-03T03:42:49.716Z,16.50
2023-03-03T03:43:52.073Z,16.40
2023-03-03T03:44:54.478Z,16.50
2023-03-03T03:45:56.859Z,16.50
2023-03-03T03:47:00.076Z,16.50
2023-03-03T03:48:02.373Z,16.50
2023-03-03T03:49:05.795Z,16.50
2023-03-03T03:50:09.347Z,16.50
2023-03-03T03:51:12.652Z,16.50
2023-03-03T03:52:16.152Z,16.40
2023-03-03T03:53:19.407Z,16.50
2023-03-03T03:54:22.322Z,16.50
2023-03-03T03:55:25.210Z,16.50
2023-03-03T03:56:27.933Z,16.60
2023-03-03T03:57:32.399Z,15.90
2023-03-03T03:58:35.039Z,15.00
2023-03-03T03:59:40.816Z,15.10
2023-03-03T04:00:44.140Z,15.60
2023-03-03T04:01:48.046Z,16.00
2023-03-03T04:02:50.841Z,16.20
2023-03-03T04:03:54.101Z,16.50
2023-03-03T04:04:59.440Z,16.60
2023-03-03T04:06:01.995Z,16.80
2023-03-03T04:07:04.355Z,16.90
2023-03-03T04:08:07.356Z,17.10
2023-03-03T04:09:10.370Z,16.70
2023-03-03T04:10:12.837Z,15.80
2023-03-03T04:11:15.529Z,15.20
2023-03-03T04:12:18.076Z,15.50
2023-03-03T04:13:20.510Z,15.90
2023-03-03T04:14:23.241Z,16.20
2023-03-03T04:15:25.770Z,16.60
2023-03-03T04:16:28.068Z,16.90
2023-03-03T04:17:30.446Z,17.10
2023-03-03T04:18:32.738Z,17.30
2023-03-03T04:19:35.332Z,17.50
2023-03-03T04:20:39.613Z,17.70
2023-03-03T04:21:42.642Z,17.80
2023-03-03T04:22:45.291Z,17.90
2023-03-03T04:23:47.848Z,18.00
2023-03-03T04:24:50.232Z,18.10
2023-03-03T04:25:53.352Z,18.10
2023-03-03T04:26:56.374Z,18.20
2023-03-03T04:27:58.595Z,18.30
2023-03-03T04:29:01.674Z,18.30
2023-03-03T04:30:05.940Z,18.30
2023-03-03T04:31:08.482Z,18.40
2023-03-03T04:32:11.399Z,18.50
2023-03-03T04:33:13.707Z,18.50
2023-03-03T04:34:16.659Z,18.50
2023-03-03T04:35:19.732Z,18.50
2023-03-03T04:36:22.213Z,18.60
2023-03-03T04:37:24.874Z,18.60
2023-03-03T04:38:27.275Z,18.60
2023-03-03T04:39:30.748Z,18.60
2023-03-03T04:40:33.827Z,18.70
2023-03-03T04:41:37.377Z,18.70
2023-03-03T04:42:40.006Z,18.70
2023-03-03T04:43:44.197Z,18.70
2023-03-03T04:44:48.290Z,18.80
2023-03-03T04:45:50.761Z,18.80
2023-03-03T04:46:53.377Z,18.80
2023-03-03T04:47:55.620Z,18.40
2023-03-03T04:48:58.422Z,17.30
2023-03-03T04:50:01.975Z,16.50
2023-03-03T04:51:06.849Z,16.70
2023-03-03T04:52:10.972Z,17.10
2023-03-03T04:53:14.014Z,17.40
2023-03-03T04:54:17.844Z,17.70
2023-03-03T04:55:20.358Z,17.90
2023-03-03T04:56:23.784Z,18.10
2023-03-03T04:57:26.507Z,18.20
2023-03-03T04:58:29.568Z,18.30
2023-03-03T04:59:32.276Z,18.30
2023-03-03T05:00:34.648Z,18.40
2023-03-03T05:01:37.768Z,18.50
2023-03-03T05:02:40.871Z,18.60
2023-03-03T05:03:43.335Z,18.60
2023-03-03T05:04:45.905Z,18.60
2023-03-03T05:05:48.290Z,18.70
2023-03-03T05:06:50.587Z,18.70
2023-03-03T05:07:52.876Z,18.80
2023-03-03T05:08:55.297Z,18.70
2023-03-03T05:09:57.520Z,18.80
2023-03-03T05:10:59.952Z,18.80
2023-03-03T05:12:02.338Z,18.80
2023-03-03T05:13:04.889Z,18.80
2023-03-03T05:14:08.143Z,18.90
2023-03-03T05:15:12.150Z,18.90
2023-03-03T05:16:14.707Z,18.90
2023-03-03T05:17:17.121Z,18.90
2023-03-03T05:18:20.068Z,18.90
2023-03-03T05:19:22.420Z,18.40
2023-03-03T05:20:25.229Z,17.90
2023-03-03T05:21:27.583Z,17.80
2023-03-03T05:22:30.016Z,18.10
2023-03-03T05:23:32.415Z,18.30
2023-03-03T05:24:34.777Z,18.40
2023-03-03T05:25:38.000Z,18.50
2023-03-03T05:26:40.968Z,18.60
2023-03-03T05:27:43.760Z,18.70
2023-03-03T05:28:46.074Z,18.80
2023-03-03T05:29:48.446Z,18.80
2023-03-03T05:30:50.756Z,18.90
2023-03-03T05:31:53.090Z,18.90
2023-03-03T05:32:55.337Z,18.90
2023-03-03T05:33:57.630Z,18.90
2023-03-03T05:34:59.881Z,18.60
2023-03-03T05:36:02.417Z,17.90
2023-03-03T05:37:06.655Z,17.30
2023-03-03T05:38:09.239Z,17.00
2023-03-03T05:39:11.550Z,16.80
2023-03-03T05:40:14.950Z,17.30
2023-03-03T05:41:17.294Z,17.60
2023-03-03T05:42:19.630Z,17.90
2023-03-03T05:43:21.936Z,18.10
2023-03-03T05:44:24.413Z,18.20
2023-03-03T05:45:26.833Z,18.30
2023-03-03T05:46:29.237Z,18.40
2023-03-03T05:47:31.827Z,18.50
2023-03-03T05:48:34.266Z,18.60
2023-03-03T05:49:36.724Z,18.60
2023-03-03T05:50:39.196Z,18.70
2023-03-03T05:51:41.521Z,18.80
2023-03-03T05:52:43.854Z,18.80
2023-03-03T05:53:46.213Z,18.90
2023-03-03T05:54:48.553Z,18.90
2023-03-03T05:55:50.951Z,19.00
2023-03-03T05:56:53.338Z,19.00
2023-03-03T05:57:55.833Z,19.00
2023-03-03T05:58:58.207Z,19.00
2023-03-03T06:00:00.486Z,18.90
2023-03-03T06:01:02.824Z,19.00
2023-03-03T06:02:05.133Z,18.90
2023-03-03T06:03:07.557Z,18.90
2023-03-03T06:04:10.083Z,18.90
2023-03-03T06:05:12.593Z,18.90
2023-03-03T06:06:16.989Z,18.00
2023-03-03T06:07:19.594Z,17.50
2023-03-03T06:08:21.948Z,17.30
2023-03-03T06:09:24.381Z,17.40
2023-03-03T06:10:27.191Z,17.70
2023-03-03T06:11:32.556Z,18.00
2023-03-03T06:12:35.236Z,18.20
2023-03-03T06:13:37.974Z,18.40
2023-03-03T06:14:40.655Z,18.50
2023-03-03T06:15:43.435Z,18.60
2023-03-03T06:16:46.197Z,18.70
2023-03-03T06:17:48.779Z,18.80
2023-03-03T06:18:51.341Z,18.80
2023-03-03T06:19:53.650Z,18.90
2023-03-03T06:20:56.298Z,18.90
2023-03-03T06:22:00.662Z,19.00
2023-03-03T06:23:03.308Z,19.00
2023-03-03T06:24:06.205Z,19.00
2023-03-03T06:25:08.947Z,19.10
2023-03-03T06:26:11.320Z,19.10
2023-03-03T06:27:13.753Z,19.10
2023-03-03T06:28:16.351Z,19.10
2023-03-03T06:29:18.705Z,19.20
2023-03-03T06:30:21.334Z,19.20
2023-03-03T06:31:23.725Z,19.20
2023-03-03T06:32:26.231Z,19.20
2023-03-03T06:33:28.578Z,19.20
2023-03-03T06:34:30.946Z,19.20
2023-03-03T06:35:33.379Z,19.20
2023-03-03T06:36:35.658Z,19.30
2023-03-03T06:37:38.292Z,19.30
2023-03-03T06:38:40.681Z,19.30
2023-03-03T06:39:43.280Z,19.30
2023-03-03T06:40:46.587Z,19.30
2023-03-03T06:41:49.310Z,19.30
2023-03-03T06:42:51.655Z,19.30
2023-03-03T06:43:54.022Z,19.30
2023-03-03T06:44:56.564Z,19.30
2023-03-03T06:45:59.034Z,19.40
2023-03-03T06:47:02.174Z,19.40
2023-03-03T06:48:04.764Z,19.40
2023-03-03T06:49:07.086Z,19.40
2023-03-03T06:50:12.173Z,19.40
2023-03-03T06:51:32.588Z,19.40
2023-03-03T06:52:35.079Z,19.40
2023-03-03T06:53:37.699Z,19.40
2023-03-03T06:54:40.671Z,19.40
2023-03-03T06:55:45.058Z,19.40
2023-03-03T06:56:49.527Z,19.40
2023-03-03T06:57:52.255Z,19.40
2023-03-03T06:58:57.039Z,19.40
2023-03-03T07:00:15.727Z,19.40
2023-03-03T07:01:18.582Z,19.40
2023-03-03T07:02:22.939Z,19.40
2023-03-03T07:03:29.738Z,19.40
2023-03-03T07:04:33.903Z,19.40
2023-03-03T07:05:36.432Z,19.40
2023-03-03T07:06:38.791Z,19.40
2023-03-03T07:07:41.308Z,19.50
2023-03-03T07:08:43.732Z,19.50
2023-03-03T07:09:50.185Z,19.50
2023-03-03T07:10:53.682Z,19.50
2023-03-03T07:12:10.297Z,19.50
2023-03-03T07:13:25.127Z,19.50
2023-03-03T07:14:28.906Z,19.50
2023-03-03T07:15:35.394Z,19.50
2023-03-03T07:16:38.299Z,19.50
2023-03-03T07:17:50.476Z,19.50
2023-03-03T07:18:57.376Z,19.50
2023-03-03T07:20:02.567Z,19.60
2023-03-03T07:21:35.391Z,19.60
2023-03-03T07:22:38.040Z,19.60
2023-03-03T07:23:44.765Z,19.60
2023-03-03T07:24:52.829Z,19.60
2023-03-03T07:25:55.829Z,19.60
2023-03-03T07:27:10.026Z,19.60
2023-03-03T07:28:20.928Z,19.60
2023-03-03T07:29:28.889Z,19.60
2023-03-03T07:30:31.518Z,19.60
2023-03-03T07:31:37.143Z,19.60
2023-03-03T07:32:46.901Z,19.60
2023-03-03T07:33:49.437Z,19.60
2023-03-03T07:34:54.143Z,19.60
2023-03-03T07:36:00.909Z,19.60
2023-03-03T07:37:22.115Z,19.60
2023-03-03T07:38:31.524Z,19.60
2023-03-03T07:39:40.565Z,19.20
2023-03-03T07:40:49.492Z,18.00
2023-03-03T07:41:52.139Z,17.00
2023-03-03T07:42:54.621Z,16.30
2023-03-03T07:44:13.648Z,15.90
2023-03-03T07:45:34.561Z,15.40
2023-03-03T07:46:44.587Z,16.00
2023-03-03T07:47:47.017Z,16.70
2023-03-03T07:48:50.314Z,17.10
2023-03-03T07:49:56.302Z,17.40
2023-03-03T07:51:06.092Z,17.70
2023-03-03T07:52:40.445Z,17.90
2023-03-03T07:53:42.819Z,18.20
2023-03-03T07:54:46.446Z,18.40
2023-03-03T07:55:49.619Z,18.50
2023-03-03T07:56:52.562Z,18.60
2023-03-03T07:57:59.137Z,18.70
2023-03-03T07:59:15.925Z,18.80
2023-03-03T08:00:18.247Z,18.90
2023-03-03T08:01:58.171Z,18.90
2023-03-03T08:03:05.463Z,19.00
2023-03-03T08:04:25.255Z,19.10
2023-03-03T08:05:38.556Z,19.20
2023-03-03T08:06:57.336Z,19.20
2023-03-03T08:08:30.121Z,19.20
2023-03-03T08:09:48.549Z,19.30
2023-03-03T08:10:53.688Z,19.30
2023-03-03T08:12:18.554Z,19.30
2023-03-03T08:13:28.158Z,19.30
2023-03-03T08:14:35.191Z,19.30
2023-03-03T08:15:38.241Z,19.40
2023-03-03T08:16:40.595Z,19.40
2023-03-03T08:17:45.666Z,19.40
2023-03-03T08:18:50.745Z,19.40
2023-03-03T08:19:55.307Z,19.50
2023-03-03T08:21:17.014Z,19.40
2023-03-03T08:22:37.703Z,19.40
2023-03-03T08:23:40.833Z,19.40
2023-03-03T08:24:43.360Z,19.50
2023-03-03T08:25:47.418Z,19.50
2023-03-03T08:26:50.287Z,19.50
2023-03-03T08:27:52.983Z,19.50
2023-03-03T08:28:55.856Z,19.50
2023-03-03T08:30:01.148Z,19.60
2023-03-03T08:31:16.648Z,19.60
2023-03-03T08:32:23.154Z,19.60
2023-03-03T08:33:26.404Z,19.60
2023-03-03T08:34:29.334Z,19.60
2023-03-03T08:35:32.075Z,19.60
2023-03-03T08:36:35.073Z,19.50
2023-03-03T08:37:37.802Z,19.40
2023-03-03T08:38:40.712Z,19.30
2023-03-03T08:39:44.097Z,19.20
2023-03-03T08:40:47.618Z,18.90
2023-03-03T08:41:49.927Z,18.80
2023-03-03T08:42:52.407Z,18.70
2023-03-03T08:43:54.729Z,18.70
2023-03-03T08:44:57.162Z,18.50
2023-03-03T08:46:02.159Z,18.50
2023-03-03T08:47:04.680Z,18.40
2023-03-03T08:48:07.617Z,18.20
2023-03-03T08:49:10.011Z,18.20
2023-03-03T08:50:13.215Z,18.20
2023-03-03T08:51:15.890Z,18.20
2023-03-03T08:52:18.377Z,18.10
2023-03-03T08:53:22.121Z,18.00
2023-03-03T08:54:24.780Z,18.10
2023-03-03T08:55:27.643Z,18.20
2023-03-03T08:56:30.125Z,18.30
2023-03-03T08:57:32.661Z,18.20
2023-03-03T08:58:36.525Z,18.20
2023-03-03T08:59:39.417Z,18.20
2023-03-03T09:00:42.321Z,18.00
2023-03-03T09:01:45.575Z,17.90
2023-03-03T09:02:50.463Z,18.00
2023-03-03T09:03:52.835Z,18.10
2023-03-03T09:04:55.172Z,18.20
2023-03-03T09:05:57.628Z,18.30
2023-03-03T09:07:00.265Z,18.50
2023-03-03T09:08:03.731Z,18.90
2023-03-03T09:09:06.172Z,18.90
2023-03-03T09:10:11.523Z,18.90
2023-03-03T09:11:14.967Z,18.90
2023-03-03T09:12:27.885Z,19.00
2023-03-03T09:13:31.276Z,19.20
2023-03-03T09:14:33.685Z,19.20
2023-03-03T09:15:38.285Z,19.20
2023-03-03T09:16:46.920Z,19.30
2023-03-03T09:17:49.973Z,19.40
2023-03-03T09:18:52.250Z,19.40
2023-03-03T09:20:00.257Z,19.30
2023-03-03T09:21:02.870Z,19.30
2023-03-03T09:22:20.692Z,19.20
2023-03-03T09:23:26.033Z,19.20
2023-03-03T09:24:30.774Z,19.10
2023-03-03T09:25:37.565Z,19.20
2023-03-03T09:26:48.617Z,19.20
2023-03-03T09:27:54.457Z,19.20
2023-03-03T09:29:14.896Z,19.20
2023-03-03T09:30:26.203Z,19.20
2023-03-03T09:31:38.921Z,19.20
2023-03-03T09:32:43.299Z,19.20
2023-03-03T09:33:50.138Z,19.30
2023-03-03T09:34:53.097Z,19.30
2023-03-03T09:36:06.005Z,19.30
2023-03-03T09:37:37.472Z,19.30
2023-03-03T09:38:45.949Z,19.40
2023-03-03T09:39:57.780Z,19.20
2023-03-03T09:41:38.083Z,19.20
2023-03-03T09:43:27.444Z,19.00
2023-03-03T09:44:52.153Z,18.80
2023-03-03T09:46:10.098Z,18.60
2023-03-03T09:47:26.071Z,18.60
2023-03-03T09:48:32.413Z,18.80
2023-03-03T09:49:52.740Z,18.90
2023-03-03T09:51:24.811Z,18.90
2023-03-03T09:52:49.072Z,19.00
2023-03-03T09:54:05.922Z,18.90
2023-03-03T09:55:37.234Z,18.90
2023-03-03T09:56:47.502Z,19.00
2023-03-03T09:58:10.026Z,19.00
2023-03-03T09:59:20.623Z,19.00
2023-03-03T10:00:47.120Z,19.00
2023-03-03T10:02:15.923Z,19.00
2023-03-03T10:03:46.731Z,19.10
2023-03-03T10:05:15.341Z,19.10
2023-03-03T10:06:49.519Z,19.10
2023-03-03T10:08:10.666Z,19.10
2023-03-03T10:09:31.416Z,19.10
2023-03-03T10:10:56.959Z,19.20
2023-03-03T10:12:24.346Z,19.10
2023-03-03T10:13:43.630Z,19.20
2023-03-03T10:14:49.400Z,19.20
2023-03-03T10:16:08.562Z,19.30
2023-03-03T10:17:39.525Z,19.30
2023-03-03T10:19:03.935Z,19.20
2023-03-03T10:20:52.486Z,19.20
2023-03-03T10:22:20.603Z,19.00
2023-03-03T10:24:02.858Z,19.00
2023-03-03T10:25:15.339Z,18.80
2023-03-03T10:26:44.227Z,18.70
2023-03-03T10:27:57.637Z,18.90
2023-03-03T10:29:26.330Z,19.00
2023-03-03T10:31:04.838Z,19.00
2023-03-03T10:32:27.448Z,19.00
2023-03-03T10:33:51.879Z,19.10
2023-03-03T10:35:16.732Z,19.10
2023-03-03T10:36:37.156Z,19.10
2023-03-03T10:38:06.733Z,19.20
2023-03-03T10:39:25.611Z,19.20
2023-03-03T10:40:50.401Z,19.20
2023-03-03T10:42:10.597Z,19.20
2023-03-03T10:43:31.197Z,19.00
2023-03-03T10:45:06.979Z,19.00
2023-03-03T10:46:36.101Z,19.00
2023-03-03T10:47:38.618Z,18.80
2023-03-03T10:48:58.937Z,18.70
2023-03-03T10:50:23.367Z,18.70
2023-03-03T10:51:55.264Z,18.80
2023-03-03T10:53:07.412Z,18.80
2023-03-03T10:54:17.266Z,18.70
2023-03-03T10:55:28.314Z,18.80
2023-03-03T10:56:56.942Z,18.60
2023-03-03T10:58:25.912Z,18.60
2023-03-03T10:59:53.008Z,18.60
2023-03-03T11:01:31.394Z,18.80
2023-03-03T11:02:49.476Z,18.90
2023-03-03T11:04:11.411Z,18.90
2023-03-03T11:05:32.769Z,18.80
2023-03-03T11:06:49.607Z,18.80
2023-03-03T11:07:57.682Z,18.60
2023-03-03T11:09:15.501Z,18.50
2023-03-03T11:10:48.607Z,18.50
2023-03-03T11:12:24.890Z,18.60
2023-03-03T11:13:39.166Z,18.60
2023-03-03T11:15:00.265Z,18.40
2023-03-03T11:16:32.976Z,18.40
2023-03-03T11:18:12.792Z,18.40
2023-03-03T11:19:34.370Z,18.30
2023-03-03T11:20:40.411Z,18.30
2023-03-03T11:22:03.810Z,18.40
2023-03-03T11:23:24.799Z,18.60
2023-03-03T11:24:54.658Z,18.60
2023-03-03T11:26:18.094Z,18.70
2023-03-03T11:27:38.473Z,18.70
2023-03-03T11:28:52.726Z,18.70
2023-03-03T11:30:18.953Z,18.70
2023-03-03T11:31:33.278Z,18.70
2023-03-03T11:32:51.068Z,18.60
2023-03-03T11:34:17.954Z,18.60
2023-03-03T11:35:28.951Z,18.60
2023-03-03T11:36:38.400Z,18.70
2023-03-03T11:38:20.984Z,18.70
2023-03-03T11:39:27.722Z,18.70
2023-03-03T11:41:15.761Z,18.80
2023-03-03T11:42:34.189Z,18.80
2023-03-03T11:43:51.443Z,18.80
2023-03-03T11:45:14.080Z,18.80
2023-03-03T11:46:22.438Z,18.80
2023-03-03T11:47:42.516Z,18.80
2023-03-03T11:49:05.961Z,18.80
2023-03-03T11:50:26.008Z,18.80
2023-03-03T11:51:54.548Z,18.80
2023-03-03T11:53:40.818Z,18.80
2023-03-03T11:54:56.395Z,18.70
2023-03-03T11:56:19.377Z,18.80
2023-03-03T11:57:42.834Z,18.80
2023-03-03T11:58:54.020Z,18.80
2023-03-03T12:00:17.954Z,18.80
2023-03-03T12:01:25.956Z,18.80
2023-03-03T12:02:44.000Z,18.80
2023-03-03T12:04:07.753Z,18.90
2023-03-03T12:05:17.809Z,19.00
2023-03-03T12:06:40.642Z,19.00
2023-03-03T12:08:02.289Z,19.00
2023-03-03T12:09:25.472Z,19.00
2023-03-03T12:10:42.821Z,18.90
2023-03-03T12:11:57.086Z,18.90
2023-03-03T12:13:17.337Z,19.00
2023-03-03T12:14:37.646Z,19.00
2023-03-03T12:16:12.760Z,19.00
2023-03-03T12:17:33.685Z,18.90
2023-03-03T12:19:11.233Z,18.90
2023-03-03T12:20:23.909Z,18.90
2023-03-03T12:21:51.484Z,18.90
2023-03-03T12:23:10.419Z,18.90
2023-03-03T12:24:15.718Z,19.00
2023-03-03T12:26:01.311Z,18.90
2023-03-03T12:27:22.346Z,18.90
2023-03-03T12:28:31.915Z,18.80
2023-03-03T12:29:51.168Z,18.80
2023-03-03T12:31:02.452Z,18.80
2023-03-03T12:32:17.240Z,18.80
2023-03-03T12:33:30.260Z,18.70
2023-03-03T12:34:47.585Z,18.60
2023-03-03T12:36:10.217Z,18.60
2023-03-03T12:37:51.139Z,18.60
2023-03-03T12:39:02.681Z,18.70
2023-03-03T12:40:21.093Z,18.70
2023-03-03T12:41:46.054Z,18.60
2023-03-03T12:43:29.556Z,18.50
2023-03-03T12:44:50.680Z,18.60
2023-03-03T12:45:53.507Z,18.70
2023-03-03T12:47:06.515Z,18.60
2023-03-03T12:48:18.015Z,18.80
2023-03-03T12:49:20.415Z,18.80
2023-03-03T12:50:41.807Z,18.80
2023-03-03T12:51:55.346Z,18.80
2023-03-03T12:53:25.288Z,18.70
2023-03-03T12:54:42.331Z,18.80
2023-03-03T12:56:19.604Z,18.80
2023-03-03T12:57:35.381Z,18.80
2023-03-03T12:59:03.177Z,18.80
2023-03-03T13:00:11.591Z,18.60
2023-03-03T13:01:38.905Z,18.60
2023-03-03T13:03:12.892Z,18.60
2023-03-03T13:04:34.101Z,18.70
2023-03-03T13:05:45.663Z,18.70
2023-03-03T13:07:22.863Z,18.70
2023-03-03T13:08:53.508Z,18.60
2023-03-03T13:10:01.698Z,18.50
2023-03-03T13:11:15.686Z,18.40
2023-03-03T13:12:22.888Z,18.40
2023-03-03T13:13:34.034Z,18.30
2023-03-03T13:15:04.304Z,18.30
2023-03-03T13:16:16.749Z,18.20
2023-03-03T13:17:38.902Z,18.20
2023-03-03T13:18:56.187Z,18.30
2023-03-03T13:20:04.982Z,18.20
2023-03-03T13:21:25.750Z,18.20
2023-03-03T13:22:44.074Z,18.20
2023-03-03T13:23:52.165Z,18.10
2023-03-03T13:25:06.362Z,18.00
2023-03-03T13:26:27.426Z,17.90
2023-03-03T13:27:42.019Z,17.90
2023-03-03T13:29:20.752Z,18.00
2023-03-03T13:30:31.694Z,18.00
2023-03-03T13:31:44.742Z,18.10
2023-03-03T13:32:59.731Z,18.00
2023-03-03T13:34:03.108Z,18.00
2023-03-03T13:35:32.565Z,18.10
2023-03-03T13:36:44.139Z,18.10
2023-03-03T13:37:52.513Z,18.10
2023-03-03T13:39:27.261Z,18.10
2023-03-03T13:40:57.688Z,18.10
2023-03-03T13:42:08.747Z,18.00
2023-03-03T13:43:19.761Z,18.00
2023-03-03T13:44:42.603Z,18.10
2023-03-03T13:46:02.485Z,18.00
2023-03-03T13:47:17.265Z,18.10
2023-03-03T13:48:50.468Z,18.20
2023-03-03T13:50:09.752Z,18.30
2023-03-03T13:51:18.231Z,18.30
2023-03-03T13:52:33.606Z,18.40
2023-03-03T13:53:46.782Z,18.40
2023-03-03T13:55:13.872Z,18.40
2023-03-03T13:56:35.939Z,18.40
2023-03-03T13:58:05.081Z,18.40
2023-03-03T13:59:26.206Z,18.40
2023-03-03T14:01:13.574Z,18.40
2023-03-03T14:02:28.685Z,18.50
2023-03-03T14:04:01.735Z,18.50
2023-03-03T14:05:12.699Z,18.50
2023-03-03T14:06:24.915Z,18.50
2023-03-03T14:07:39.180Z,18.50
2023-03-03T14:09:11.426Z,18.50
2023-03-03T14:10:23.507Z,18.50
2023-03-03T14:11:32.617Z,18.60
2023-03-03T14:12:51.270Z,18.70
2023-03-03T14:14:24.070Z,18.70
2023-03-03T14:15:32.871Z,18.60
2023-03-03T14:17:03.485Z,18.70
2023-03-03T14:18:28.116Z,18.70
2023-03-03T14:19:45.086Z,18.70
2023-03-03T14:20:53.161Z,18.70
2023-03-03T14:22:30.872Z,18.70
2023-03-03T14:24:02.299Z,18.70
2023-03-03T14:25:10.414Z,18.70
2023-03-03T14:26:14.040Z,18.60
2023-03-03T14:27:25.077Z,18.70
2023-03-03T14:28:30.248Z,18.70
2023-03-03T14:29:33.597Z,18.80
2023-03-03T14:30:40.730Z,18.80
2023-03-03T14:31:44.273Z,18.70
2023-03-03T14:33:05.260Z,18.70
2023-03-03T14:34:25.531Z,18.80
2023-03-03T14:35:43.400Z,18.80
2023-03-03T14:36:45.823Z,18.80
2023-03-03T14:37:50.686Z,18.80
2023-03-03T14:38:53.190Z,18.80
2023-03-03T14:40:04.352Z,18.80
2023-03-03T14:41:12.971Z,18.90
2023-03-03T14:42:36.820Z,18.90
2023-03-03T14:43:59.047Z,18.90
2023-03-03T14:45:28.708Z,18.90
2023-03-03T14:46:37.608Z,18.90
2023-03-03T14:47:46.112Z,18.90
2023-03-03T14:48:56.073Z,19.00
2023-03-03T14:50:03.458Z,19.00
2023-03-03T14:51:23.513Z,19.00
2023-03-03T14:52:29.687Z,19.00
2023-03-03T14:53:38.050Z,19.00
2023-03-03T14:54:47.894Z,18.90
2023-03-03T14:55:52.932Z,18.70
2023-03-03T14:57:07.637Z,18.80
2023-03-03T14:58:30.891Z,18.80